Country
Station

 

Weather  for  Kodiak  -  United States    United States

  
10 °C (50 °F)
    
 
 

Current METAR for Kodiak is :

PADQ 211153Z AUTO 09017KT 10SM -RA FEW022 BKN031 OVC042 10/07 A2943 RMK AO2 SLP965 P0002 60002 70003 T01000067 10106 20094 56026 TSNO $

 

This is a report for Kodiak - United States.
 
The report was made 26 minutes ago, at 11:53 UTC .
The wind was blowing at a speed of 8.7 meters per second (19.6 miles per hour) from east (090°).
 
The temperature was 10 °C (50 °F), with a dew-point at 7 °C (45 °F).
The atmospheric pressure was 997 hPa (29.43 inHg).
The relative humidity was 81.6%.
 
There were a few clouds at a height of 671 meters (2200 feet) and broken clouds at a height of 945 meters (3100 feet). The sky was overcast from a height of 1280 meter (4200 feet)
 
The overall visibility was 16.1 kilometers (10.0 miles).
 
Currently light rain.

 
 
 
 

Country :   A   B   C   D   E   F   G   H   I   J   K   L   M   N   O   P   Q   R   S   T   U   V   W   Y   Z

 

Site Info  |  Disclaimer  |  Credits  |  Privacy
Contact us  |  Add to favorites
© 2013-2020 METARs - All rights reserved